TAF Text Data
IDs:
Format:
Raw Decoded Include METAR

Data at: 2141 UTC 01 Dec 2021

KRWL 011720Z 0118/0218 25023G33KT P6SM BKN200
  FM020000 23014G24KT P6SM SCT200
  FM020300 24012KT P6SM SCT200